createdAt,value
2022-11-08T00:02:05.327Z,5.83
2022-11-08T00:05:25.945Z,5.27
2022-11-08T00:08:46.386Z,5.47
2022-11-08T00:12:06.832Z,5.10
2022-11-08T00:15:10.418Z,5.80
2022-11-08T00:18:14.387Z,5.50
2022-11-08T00:21:16.963Z,5.43
2022-11-08T00:24:19.559Z,4.60
2022-11-08T00:27:23.643Z,5.00
2022-11-08T00:30:26.177Z,5.00
2022-11-08T00:33:30.113Z,4.80
2022-11-08T00:36:32.736Z,4.80
2022-11-08T00:39:35.663Z,4.83
2022-11-08T00:42:38.350Z,4.47
2022-11-08T00:45:41.029Z,4.40
2022-11-08T00:48:45.071Z,4.00
2022-11-08T00:51:47.708Z,3.93
2022-11-08T00:54:50.299Z,4.63
2022-11-08T00:57:59.768Z,5.00
2022-11-08T01:01:10.428Z,3.50
2022-11-08T01:04:17.187Z,3.77
2022-11-08T01:07:19.967Z,3.90
2022-11-08T01:10:22.550Z,3.50
2022-11-08T01:13:25.103Z,3.30
2022-11-08T01:16:29.338Z,3.43
2022-11-08T01:19:33.530Z,3.23
2022-11-08T01:22:36.094Z,3.10
2022-11-08T01:25:38.674Z,3.20
2022-11-08T01:28:41.604Z,3.17
2022-11-08T01:31:44.128Z,3.70
2022-11-08T01:34:48.155Z,3.07
2022-11-08T01:37:52.092Z,2.83
2022-11-08T01:40:54.973Z,2.90
2022-11-08T01:43:58.082Z,3.47
2022-11-08T01:47:00.730Z,3.17
2022-11-08T01:50:07.330Z,2.87
2022-11-08T01:53:09.944Z,3.20
2022-11-08T01:56:13.974Z,2.83
2022-11-08T01:59:17.540Z,3.00
2022-11-08T02:02:20.713Z,2.90
2022-11-08T02:05:27.931Z,3.17
2022-11-08T02:08:34.377Z,2.90
2022-11-08T02:11:37.272Z,2.93
2022-11-08T02:14:39.905Z,3.15
2022-11-08T02:17:42.541Z,3.40
2022-11-08T02:20:52.289Z,3.30
2022-11-08T02:23:57.682Z,3.33
2022-11-08T02:27:00.715Z,3.47
2022-11-08T02:30:03.339Z,3.85
2022-11-08T02:33:15.589Z,3.77
2022-11-08T02:36:20.725Z,3.47
2022-11-08T02:39:24.885Z,3.40
2022-11-08T02:42:27.534Z,3.87
2022-11-08T02:45:30.139Z,4.50
2022-11-08T02:48:32.718Z,5.37
2022-11-08T02:51:35.295Z,4.73
2022-11-08T02:54:39.253Z,5.40
2022-11-08T02:57:41.876Z,4.17
2022-11-08T03:00:44.497Z,4.73
2022-11-08T03:03:47.059Z,5.33
2022-11-08T03:06:49.635Z,5.50
2022-11-08T03:09:53.519Z,5.83
2022-11-08T03:12:56.779Z,4.73
2022-11-08T03:15:59.471Z,5.13
2022-11-08T03:19:02.204Z,4.70
2022-11-08T03:22:04.751Z,5.30
2022-11-08T03:25:09.462Z,4.17
2022-11-08T03:28:12.009Z,5.17
2022-11-08T03:31:14.578Z,4.60
2022-11-08T03:34:17.268Z,5.30
2022-11-08T03:37:20.109Z,4.80
2022-11-08T03:40:24.982Z,4.18
2022-11-08T03:43:27.712Z,5.20
2022-11-08T03:46:30.269Z,3.60
2022-11-08T03:49:32.820Z,4.00
2022-11-08T03:52:41.308Z,3.97
2022-11-08T03:55:45.198Z,4.20
2022-11-08T03:58:47.973Z,3.20
2022-11-08T04:01:50.778Z,3.80
2022-11-08T04:04:53.505Z,10.55
2022-11-08T04:07:56.071Z,3.80
2022-11-08T04:11:21.408Z,3.17
2022-11-08T04:14:41.464Z,3.30
2022-11-08T04:18:02.723Z,3.70
2022-11-08T04:21:21.853Z,3.53
2022-11-08T04:24:24.834Z,3.00
2022-11-08T04:27:28.800Z,3.30
2022-11-08T04:30:31.649Z,3.37
2022-11-08T04:33:34.381Z,3.10
2022-11-08T04:36:37.548Z,3.33
2022-11-08T04:39:40.128Z,4.43
2022-11-08T04:42:46.167Z,3.13
2022-11-08T04:45:48.836Z,3.63
2022-11-08T04:48:52.684Z,3.57
2022-11-08T04:51:55.281Z,3.20
2022-11-08T04:54:57.933Z,2.90
2022-11-08T04:58:01.863Z,3.07
2022-11-08T05:01:06.092Z,3.37
2022-11-08T05:04:15.133Z,3.30
2022-11-08T05:07:17.677Z,3.40
2022-11-08T05:10:20.392Z,3.80
2022-11-08T05:13:24.425Z,4.23
2022-11-08T05:16:28.341Z,4.77
2022-11-08T05:19:48.753Z,4.60
2022-11-08T05:23:08.876Z,3.40
2022-11-08T05:26:11.630Z,3.57
2022-11-08T05:29:16.731Z,3.83
2022-11-08T05:32:19.452Z,3.70
2022-11-08T05:35:23.005Z,3.57
2022-11-08T05:38:25.635Z,3.22
2022-11-08T05:41:28.392Z,3.97
2022-11-08T05:44:32.427Z,3.50
2022-11-08T05:47:35.129Z,3.17
2022-11-08T05:50:37.782Z,3.80
2022-11-08T05:53:40.870Z,3.30
2022-11-08T05:56:43.475Z,3.55
2022-11-08T05:59:47.368Z,2.70
2022-11-08T06:02:50.006Z,4.37
2022-11-08T06:06:13.214Z,3.60
2022-11-08T06:09:15.772Z,4.37
2022-11-08T06:12:18.873Z,4.37
2022-11-08T06:15:22.784Z,3.63
2022-11-08T06:18:25.415Z,3.80
2022-11-08T06:21:28.613Z,3.97
2022-11-08T06:24:31.371Z,4.75
2022-11-08T06:27:34.032Z,4.50
2022-11-08T06:30:38.109Z,3.87
2022-11-08T06:33:40.868Z,4.13
2022-11-08T06:36:43.464Z,4.72
2022-11-08T06:39:46.115Z,5.00
2022-11-08T06:42:48.904Z,4.33
2022-11-08T06:45:53.997Z,4.30
2022-11-08T06:48:56.752Z,3.80
2022-11-08T06:51:59.400Z,4.70
2022-11-08T06:55:02.081Z,4.93
2022-11-08T06:58:05.921Z,5.70
2022-11-08T07:01:11.526Z,5.33
2022-11-08T07:04:14.169Z,5.07
2022-11-08T07:07:16.815Z,5.33
2022-11-08T07:10:19.741Z,4.80
2022-11-08T07:13:22.526Z,5.20
2022-11-08T07:16:26.746Z,5.32
2022-11-08T07:19:29.483Z,4.90
2022-11-08T07:22:32.217Z,5.43
2022-11-08T07:25:35.572Z,5.67
2022-11-08T07:28:38.186Z,6.18
2022-11-08T07:31:42.188Z,5.97
2022-11-08T07:34:45.957Z,5.67
2022-11-08T07:40:51.521Z,6.43
2022-11-08T07:43:54.244Z,5.50
2022-11-08T07:46:58.212Z,5.20
2022-11-08T07:50:00.843Z,5.40
2022-11-08T07:53:03.466Z,5.43
2022-11-08T07:56:06.412Z,5.07
2022-11-08T07:59:09.143Z,5.50
2022-11-08T08:02:13.634Z,5.40
2022-11-08T08:05:16.328Z,5.77
2022-11-08T08:08:19.129Z,5.37
2022-11-08T08:11:21.875Z,5.63
2022-11-08T08:14:24.547Z,4.63
2022-11-08T08:17:28.779Z,5.63
2022-11-08T08:20:31.855Z,5.10
2022-11-08T08:23:34.684Z,5.75
2022-11-08T08:26:37.305Z,5.88
2022-11-08T08:29:39.846Z,5.50
2022-11-08T08:32:43.810Z,4.80
2022-11-08T08:35:46.417Z,5.07
2022-11-08T08:38:49.033Z,4.90
2022-11-08T08:41:51.647Z,5.60
2022-11-08T08:44:54.501Z,4.33
2022-11-08T08:47:59.087Z,4.70
2022-11-08T08:51:01.667Z,3.53
2022-11-08T08:54:04.297Z,3.83
2022-11-08T08:57:06.842Z,3.83
2022-11-08T09:06:38.376Z,2.90
2022-11-08T09:09:41.081Z,3.55
2022-11-08T09:12:43.709Z,3.70
2022-11-08T09:15:46.324Z,3.97
2022-11-08T09:18:50.341Z,3.77
2022-11-08T09:21:53.115Z,3.90
2022-11-08T09:24:55.740Z,3.78
2022-11-08T09:28:00.372Z,3.77
2022-11-08T09:31:04.624Z,4.30
2022-11-08T09:34:08.526Z,4.13
2022-11-08T09:37:11.114Z,3.87
2022-11-08T09:43:36.427Z,4.77
2022-11-08T09:46:42.729Z,4.20
2022-11-08T09:49:48.649Z,4.50
2022-11-08T09:52:55.380Z,4.53
2022-11-08T09:56:00.217Z,4.57
2022-11-08T09:59:11.427Z,5.13
2022-11-08T10:02:18.721Z,3.57
2022-11-08T10:05:22.981Z,3.43
2022-11-08T10:08:31.261Z,4.00
2022-11-08T10:11:54.590Z,3.13
2022-11-08T10:15:10.092Z,3.60
2022-11-08T10:18:39.966Z,3.53
2022-11-08T10:21:54.800Z,3.10
2022-11-08T10:25:01.628Z,3.90
2022-11-08T10:28:04.716Z,3.53
2022-11-08T10:31:07.630Z,3.88
2022-11-08T10:34:15.018Z,3.08
2022-11-08T10:37:19.071Z,3.20
2022-11-08T10:40:29.985Z,3.40
2022-11-08T10:43:35.942Z,3.07
2022-11-08T10:46:41.816Z,3.30
2022-11-08T10:49:44.940Z,3.33
2022-11-08T10:52:54.827Z,4.68
2022-11-08T10:56:00.659Z,4.70
2022-11-08T10:59:03.192Z,4.20
2022-11-08T11:02:19.307Z,4.90
2022-11-08T11:05:25.862Z,3.83
2022-11-08T11:08:30.168Z,4.07
2022-11-08T11:11:37.519Z,4.03
2022-11-08T11:14:40.631Z,3.87
2022-11-08T11:17:45.796Z,3.03
2022-11-08T11:21:02.292Z,3.57
2022-11-08T11:24:15.341Z,3.30
2022-11-08T11:27:24.044Z,3.10
2022-11-08T11:30:33.537Z,1.93
2022-11-08T11:33:44.556Z,2.03
2022-11-08T11:36:50.947Z,1.50
2022-11-08T11:40:02.344Z,1.67
2022-11-08T11:43:10.260Z,1.37
2022-11-08T11:46:17.591Z,1.53
2022-11-08T11:49:21.690Z,1.10
2022-11-08T11:52:24.368Z,1.10
2022-11-08T11:55:42.010Z,1.00
2022-11-08T11:58:57.696Z,1.40
2022-11-08T12:02:14.495Z,1.33
2022-11-08T12:05:28.460Z,1.10
2022-11-08T12:08:37.037Z,1.67
2022-11-08T12:11:54.345Z,1.40
2022-11-08T12:15:01.999Z,1.57
2022-11-08T12:18:42.176Z,1.07
2022-11-08T12:21:52.276Z,0.90
2022-11-08T12:24:59.575Z,0.87
2022-11-08T12:28:13.517Z,1.10
2022-11-08T12:31:25.626Z,1.17
2022-11-08T12:34:32.273Z,0.83
2022-11-08T12:37:45.830Z,1.10
2022-11-08T12:40:52.574Z,0.73
2022-11-08T12:44:21.252Z,1.03
2022-11-08T12:47:32.290Z,0.80
2022-11-08T12:50:39.466Z,0.90
2022-11-08T12:54:04.884Z,0.80
2022-11-08T12:57:11.993Z,0.63
2022-11-08T13:00:18.787Z,0.90
2022-11-08T13:03:37.752Z,0.80
2022-11-08T13:06:44.695Z,0.80
2022-11-08T13:09:52.894Z,1.07
2022-11-08T13:13:06.728Z,0.90
2022-11-08T13:16:15.766Z,1.10
2022-11-08T13:19:29.036Z,0.70
2022-11-08T13:22:45.200Z,1.30
2022-11-08T13:25:48.309Z,1.03
2022-11-08T13:28:51.435Z,0.88
2022-11-08T13:35:04.890Z,1.20
2022-11-08T13:38:19.711Z,1.57
2022-11-08T13:41:24.593Z,1.37
2022-11-08T13:44:57.079Z,1.10
2022-11-08T13:48:13.537Z,1.40
2022-11-08T13:51:29.862Z,1.40
2022-11-08T13:54:49.425Z,1.70
2022-11-08T13:57:58.319Z,1.60
2022-11-08T14:01:01.796Z,1.60
2022-11-08T14:04:24.108Z,1.70
2022-11-08T14:07:31.091Z,1.27
2022-11-08T14:10:39.866Z,1.70
2022-11-08T14:14:07.217Z,1.53
2022-11-08T14:17:28.412Z,1.60
2022-11-08T14:20:35.804Z,1.57
2022-11-08T14:23:40.858Z,1.90
2022-11-08T14:26:46.376Z,1.40
2022-11-08T14:30:00.102Z,1.20
2022-11-08T14:33:07.979Z,1.67
2022-11-08T14:36:16.639Z,2.70
2022-11-08T14:39:19.794Z,2.27
2022-11-08T14:42:24.318Z,2.08
2022-11-08T14:45:29.869Z,2.13
2022-11-08T14:48:32.536Z,4.43
2022-11-08T14:51:36.608Z,2.30
2022-11-08T14:54:40.554Z,2.30
2022-11-08T14:57:44.105Z,2.83
2022-11-08T15:00:47.489Z,2.57
2022-11-08T15:06:59.053Z,2.33
2022-11-08T15:10:08.441Z,2.90
2022-11-08T15:13:11.437Z,2.97
2022-11-08T15:16:15.295Z,2.58
2022-11-08T15:19:29.534Z,2.50
2022-11-08T15:22:34.343Z,2.30
2022-11-08T15:25:38.199Z,2.77
2022-11-08T15:28:40.754Z,2.37
2022-11-08T15:31:44.946Z,3.30
2022-11-08T15:34:48.315Z,3.40
2022-11-08T15:37:52.842Z,3.80
2022-11-08T15:40:57.844Z,3.47
2022-11-08T15:44:19.309Z,2.77
2022-11-08T15:47:40.655Z,2.50
2022-11-08T15:50:43.238Z,2.67
2022-11-08T15:53:47.146Z,2.40
2022-11-08T15:56:51.015Z,2.53
2022-11-08T15:59:53.602Z,3.43
2022-11-08T16:02:56.235Z,2.87
2022-11-08T16:05:59.048Z,2.83
2022-11-08T16:09:03.064Z,4.68
2022-11-08T16:12:06.225Z,4.27
2022-11-08T16:15:12.640Z,4.20
2022-11-08T16:18:16.642Z,4.60
2022-11-08T16:21:19.500Z,3.63
2022-11-08T16:24:23.478Z,3.97
2022-11-08T16:27:26.141Z,3.47
2022-11-08T16:30:28.748Z,4.80
2022-11-08T16:33:32.933Z,4.68
2022-11-08T16:36:35.536Z,3.20
2022-11-08T16:39:39.593Z,4.40
2022-11-08T16:42:42.236Z,4.37
2022-11-08T16:46:04.297Z,4.93
2022-11-08T16:49:08.355Z,4.07
2022-11-08T16:55:17.919Z,4.30
2022-11-08T16:58:20.822Z,3.93
2022-11-08T17:01:27.456Z,4.07
2022-11-08T17:04:30.266Z,4.03
2022-11-08T17:07:32.968Z,2.83
2022-11-08T17:10:36.966Z,2.78
2022-11-08T17:13:40.678Z,2.30
2022-11-08T17:16:43.459Z,2.50
2022-11-08T17:19:46.215Z,1.98
2022-11-08T17:22:49.673Z,4.88
2022-11-08T17:25:53.706Z,4.78
2022-11-08T17:28:56.986Z,3.33
2022-11-08T17:31:59.641Z,4.43
2022-11-08T17:35:02.478Z,3.25
2022-11-08T17:38:05.099Z,3.22
2022-11-08T17:41:10.886Z,2.83
2022-11-08T17:44:14.326Z,3.17
2022-11-08T17:47:17.175Z,3.10
2022-11-08T17:50:19.902Z,2.70
2022-11-08T17:53:22.593Z,3.90
2022-11-08T17:56:26.583Z,3.58
2022-11-08T17:59:29.224Z,3.60
2022-11-08T18:02:34.437Z,3.80
2022-11-08T18:05:37.284Z,3.70
2022-11-08T18:08:40.400Z,3.90
2022-11-08T18:11:47.878Z,4.32
2022-11-08T18:14:50.472Z,4.43
2022-11-08T18:17:53.071Z,4.70
2022-11-08T18:20:56.387Z,4.40
2022-11-08T18:23:59.920Z,5.32
2022-11-08T18:30:07.558Z,4.15
2022-11-08T18:33:10.714Z,5.17
2022-11-08T18:36:16.755Z,5.53
2022-11-08T18:39:20.008Z,4.37
2022-11-08T18:42:24.171Z,4.85
2022-11-08T18:45:26.779Z,3.83
2022-11-08T18:48:29.477Z,5.17
2022-11-08T18:51:32.848Z,4.30
2022-11-08T18:54:35.677Z,5.10
2022-11-08T18:57:39.872Z,4.70
2022-11-08T19:00:42.787Z,4.20
2022-11-08T19:03:45.723Z,4.90
2022-11-08T19:06:54.160Z,3.90
2022-11-08T19:09:57.332Z,4.00
2022-11-08T19:13:01.457Z,4.43
2022-11-08T19:16:05.911Z,4.20
2022-11-08T19:19:08.570Z,5.33
2022-11-08T19:22:12.135Z,5.53
2022-11-08T19:25:14.808Z,5.03
2022-11-08T19:28:18.766Z,4.57
2022-11-08T19:31:22.410Z,5.53
2022-11-08T19:37:27.507Z,6.10
2022-11-08T19:40:32.284Z,6.67
2022-11-08T19:43:37.286Z,6.77
2022-11-08T19:46:40.740Z,7.57
2022-11-08T19:49:43.317Z,6.43
2022-11-08T19:52:45.986Z,5.53
2022-11-08T19:55:48.624Z,8.13
2022-11-08T19:58:53.014Z,5.80
2022-11-08T20:01:55.756Z,6.33
2022-11-08T20:04:58.848Z,6.35
2022-11-08T20:08:05.918Z,6.22
2022-11-08T20:11:12.537Z,5.77
2022-11-08T20:14:16.518Z,5.87
2022-11-08T20:17:19.164Z,5.90
2022-11-08T20:20:22.048Z,5.37
2022-11-08T20:23:25.693Z,5.07
2022-11-08T20:29:32.649Z,5.30
2022-11-08T20:32:35.277Z,5.90
2022-11-08T20:35:38.749Z,5.33
2022-11-08T20:38:42.090Z,4.75
2022-11-08T20:41:44.775Z,4.28
2022-11-08T20:44:48.987Z,5.20
2022-11-08T20:47:51.556Z,5.23
2022-11-08T20:50:57.955Z,4.17
2022-11-08T20:54:01.444Z,5.57
2022-11-08T20:57:04.192Z,5.18
2022-11-08T21:00:13.646Z,6.43
2022-11-08T21:03:19.107Z,5.90
2022-11-08T21:06:23.094Z,5.13
2022-11-08T21:09:37.521Z,5.20
2022-11-08T21:12:45.067Z,5.93
2022-11-08T21:15:50.326Z,6.28
2022-11-08T21:18:52.902Z,5.13
2022-11-08T21:22:14.830Z,5.70
2022-11-08T21:25:17.591Z,6.47
2022-11-08T21:28:20.444Z,5.90
2022-11-08T21:31:24.599Z,5.85
2022-11-08T21:34:32.183Z,5.93
2022-11-08T21:37:35.213Z,6.00
2022-11-08T21:40:39.106Z,6.13
2022-11-08T21:43:44.061Z,6.03
2022-11-08T21:46:48.042Z,4.97
2022-11-08T21:49:50.654Z,5.47
2022-11-08T21:52:53.534Z,5.90
2022-11-08T21:55:58.162Z,4.85
2022-11-08T21:59:01.259Z,4.47
2022-11-08T22:02:05.552Z,5.70
2022-11-08T22:05:09.649Z,4.80
2022-11-08T22:08:12.322Z,4.07
2022-11-08T22:11:15.085Z,5.30
2022-11-08T22:14:17.824Z,5.70
2022-11-08T22:17:22.559Z,6.32
2022-11-08T22:20:26.041Z,4.83
2022-11-08T22:23:28.740Z,4.10
2022-11-08T22:26:31.388Z,4.22
2022-11-08T22:29:34.317Z,3.93
2022-11-08T22:32:38.308Z,3.78
2022-11-08T22:35:41.088Z,4.13
2022-11-08T22:38:43.790Z,3.88
2022-11-08T22:41:48.523Z,4.37
2022-11-08T22:44:51.472Z,4.03
2022-11-08T22:47:55.539Z,6.35
2022-11-08T22:50:58.513Z,6.00
2022-11-08T22:54:01.754Z,5.32
2022-11-08T22:57:04.959Z,5.32
2022-11-08T23:00:10.022Z,6.18
2022-11-08T23:03:14.376Z,5.43
2022-11-08T23:06:17.090Z,5.73
2022-11-08T23:09:20.021Z,4.85
2022-11-08T23:12:40.297Z,4.70
2022-11-08T23:16:00.341Z,5.60
2022-11-08T23:19:23.960Z,5.40
2022-11-08T23:22:44.091Z,6.22
2022-11-08T23:25:46.911Z,5.50
2022-11-08T23:29:07.102Z,4.57
2022-11-08T23:32:09.680Z,5.20
2022-11-08T23:35:14.419Z,6.60
2022-11-08T23:38:20.165Z,5.63
2022-11-08T23:41:43.088Z,6.30
2022-11-08T23:44:45.967Z,5.40
2022-11-08T23:47:48.629Z,5.88
2022-11-08T23:50:54.501Z,4.63
2022-11-08T23:53:57.351Z,5.70
2022-11-08T23:56:59.955Z,5.10
